TimeMDT,TemperatureF,Dew PointF,Humidity,Sea Level PressureIn,VisibilityMPH,Wind Direction,Wind SpeedMPH,Gust SpeedMPH,PrecipitationIn,Events,Conditions,WindDirDegrees,DateUTC
12:15 AM,66.2,26.6,23,29.83,10.0,Calm,Calm,-,N/A,,Clear,0,2013-05-18 06:15:00
12:35 AM,66.2,26.6,23,29.83,10.0,Calm,Calm,-,N/A,,Clear,0,2013-05-18 06:35:00
1:15 AM,60.8,30.2,31,29.84,10.0,ESE,8.1,-,N/A,,Clear,120,2013-05-18 07:15:00
1:35 AM,57.2,30.2,36,29.84,10.0,East,13.8,-,N/A,,Clear,90,2013-05-18 07:35:00
1:55 AM,57.2,30.2,36,29.84,10.0,ESE,11.5,-,N/A,,Clear,110,2013-05-18 07:55:00
2:15 AM,59.0,32.0,36,29.84,10.0,ESE,10.4,-,N/A,,Clear,110,2013-05-18 08:15:00
2:35 AM,55.4,33.8,44,29.84,10.0,East,12.7,-,N/A,,Clear,100,2013-05-18 08:35:00
2:55 AM,55.4,32.0,41,29.85,10.0,East,9.2,-,N/A,,Clear,80,2013-05-18 08:55:00
3:15 AM,51.8,33.8,50,29.87,10.0,NW,4.6,-,N/A,,Clear,320,2013-05-18 09:15:00
3:35 AM,51.8,35.6,54,29.88,10.0,NNW,8.1,-,N/A,,Clear,340,2013-05-18 09:35:00
3:55 AM,48.2,35.6,62,29.88,10.0,NNW,6.9,-,N/A,,Clear,330,2013-05-18 09:55:00
4:15 AM,53.6,33.8,47,29.88,10.0,NW,6.9,-,N/A,,Clear,320,2013-05-18 10:15:00
4:35 AM,51.8,33.8,50,29.88,10.0,NW,8.1,-,N/A,,Clear,320,2013-05-18 10:35:00
4:55 AM,57.2,32.0,38,29.88,10.0,North,5.8,-,N/A,,Clear,350,2013-05-18 10:55:00
5:15 AM,55.4,30.2,38,29.88,10.0,NE,4.6,-,N/A,,Clear,40,2013-05-18 11:15:00
5:35 AM,51.8,30.2,44,29.89,10.0,SSW,5.8,-,N/A,,Clear,210,2013-05-18 11:35:00
5:55 AM,53.6,35.6,51,29.89,10.0,NNE,5.8,-,N/A,,Clear,30,2013-05-18 11:55:00
6:15 AM,53.6,33.8,47,29.90,10.0,North,9.2,-,N/A,,Clear,10,2013-05-18 12:15:00
6:35 AM,55.4,35.6,47,29.91,10.0,NNE,6.9,-,N/A,,Clear,30,2013-05-18 12:35:00
6:55 AM,53.6,39.2,58,29.91,10.0,North,6.9,-,N/A,,Clear,10,2013-05-18 12:55:00
7:15 AM,57.2,37.4,48,29.91,10.0,North,6.9,-,N/A,,Clear,10,2013-05-18 13:15:00
7:35 AM,57.2,42.8,59,29.92,10.0,NNW,4.6,-,N/A,,Clear,340,2013-05-18 13:35:00
7:55 AM,57.2,42.8,59,29.92,10.0,Calm,Calm,-,N/A,,Clear,0,2013-05-18 13:55:00
8:15 AM,60.8,39.2,45,29.92,10.0,Calm,Calm,-,N/A,,Clear,0,2013-05-18 14:15:00
8:35 AM,64.4,37.4,37,29.92,10.0,East,4.6,-,N/A,,Clear,100,2013-05-18 14:35:00
8:55 AM,66.2,37.4,35,29.92,10.0,Calm,Calm,-,N/A,,Clear,0,2013-05-18 14:55:00
9:15 AM,62.6,44.6,52,29.93,10.0,South,4.6,-,N/A,,Clear,190,2013-05-18 15:15:00
9:35 AM,64.4,44.6,49,29.93,10.0,SSW,6.9,-,N/A,,Clear,200,2013-05-18 15:35:00
9:55 AM,64.4,42.8,45,29.93,10.0,SSW,8.1,-,N/A,,Clear,200,2013-05-18 15:55:00
10:15 AM,66.2,42.8,43,29.92,10.0,South,5.8,-,N/A,,Clear,180,2013-05-18 16:15:00
10:35 AM,66.2,42.8,43,29.92,10.0,South,5.8,-,N/A,,Clear,190,2013-05-18 16:35:00
10:55 AM,68.0,42.8,40,29.92,10.0,SSW,5.8,-,N/A,,Clear,210,2013-05-18 16:55:00
11:15 AM,69.8,41.0,35,29.92,10.0,South,5.8,-,N/A,,Clear,190,2013-05-18 17:15:00
11:35 AM,71.6,39.2,31,29.91,10.0,Calm,Calm,-,N/A,,Clear,0,2013-05-18 17:35:00
11:55 AM,71.6,37.4,29,29.90,10.0,East,3.5,-,N/A,,Clear,80,2013-05-18 17:55:00
12:15 PM,73.4,35.6,25,29.89,10.0,SW,5.8,-,N/A,,Clear,230,2013-05-18 18:15:00
1:15 PM,73.4,35.6,25,29.86,10.0,NW,5.8,-,N/A,,Clear,320,2013-05-18 19:15:00
1:35 PM,73.4,35.6,25,29.85,10.0,WSW,8.1,-,N/A,,Clear,240,2013-05-18 19:35:00
1:55 PM,73.4,35.6,25,29.85,10.0,WSW,4.6,-,N/A,,Partly Cloudy,240,2013-05-18 19:55:00
2:15 PM,71.6,35.6,27,29.84,10.0,SSW,6.9,-,N/A,,Partly Cloudy,200,2013-05-18 20:15:00
2:35 PM,71.6,35.6,27,29.84,10.0,SSW,3.5,-,N/A,,Clear,210,2013-05-18 20:35:00
2:55 PM,73.4,33.8,23,29.84,10.0,SE,5.8,-,N/A,,Clear,130,2013-05-18 20:55:00
3:15 PM,75.2,35.6,24,29.83,10.0,ESE,5.8,-,N/A,,Clear,120,2013-05-18 21:15:00
3:55 PM,78.8,33.8,20,29.80,10.0,ENE,5.8,-,N/A,,Clear,70,2013-05-18 21:55:00
4:15 PM,75.2,30.2,19,29.79,10.0,South,5.8,-,N/A,,Clear,170,2013-05-18 22:15:00
4:35 PM,75.2,33.8,22,29.78,10.0,SW,4.6,-,N/A,,Clear,220,2013-05-18 22:35:00
4:55 PM,73.4,30.2,20,29.79,10.0,SW,12.7,-,N/A,,Scattered Clouds,220,2013-05-18 22:55:00
5:15 PM,69.8,37.4,31,29.79,10.0,West,11.5,-,N/A,,Mostly Cloudy,260,2013-05-18 23:15:00
5:35 PM,68.0,35.6,30,29.81,10.0,WSW,18.4,-,N/A,,Partly Cloudy,250,2013-05-18 23:35:00
6:15 PM,64.4,39.2,40,29.83,10.0,West,16.1,23.0,N/A,,Mostly Cloudy,280,2013-05-19 00:15:00
6:55 PM,62.6,37.4,39,29.81,10.0,NW,16.1,23.0,N/A,,Partly Cloudy,310,2013-05-19 00:55:00
7:15 PM,62.6,39.2,42,29.81,10.0,NW,11.5,-,N/A,,Partly Cloudy,320,2013-05-19 01:15:00
7:35 PM,64.4,35.6,34,29.80,10.0,NW,18.4,26.5,N/A,,Partly Cloudy,310,2013-05-19 01:35:00
7:55 PM,62.6,35.6,37,29.81,10.0,NNW,17.3,-,N/A,,Mostly Cloudy,330,2013-05-19 01:55:00
8:15 PM,60.8,35.6,39,29.82,10.0,NW,15.0,-,N/A,,Overcast,320,2013-05-19 02:15:00
8:35 PM,60.8,35.6,39,29.82,10.0,North,8.1,-,N/A,,Partly Cloudy,10,2013-05-19 02:35:00
8:55 PM,60.8,35.6,39,29.83,10.0,North,11.5,-,N/A,,Clear,10,2013-05-19 02:55:00
9:15 PM,60.8,35.6,39,29.84,10.0,NNE,6.9,-,N/A,,Scattered Clouds,20,2013-05-19 03:15:00
9:35 PM,59.0,35.6,42,29.85,10.0,ENE,6.9,-,N/A,,Overcast,70,2013-05-19 03:35:00
9:55 PM,59.0,42.8,55,29.86,10.0,NE,6.9,-,N/A,,Overcast,40,2013-05-19 03:55:00
10:15 PM,57.2,37.4,48,29.87,10.0,East,6.9,-,N/A,,Overcast,80,2013-05-19 04:15:00
10:35 PM,57.2,39.2,51,29.88,10.0,North,6.9,-,N/A,,Mostly Cloudy,360,2013-05-19 04:35:00
10:55 PM,57.2,39.2,51,29.88,10.0,NW,10.4,-,N/A,,Mostly Cloudy,320,2013-05-19 04:55:00
11:15 PM,59.0,35.6,42,29.87,10.0,NNW,9.2,-,N/A,,Mostly Cloudy,340,2013-05-19 05:15:00
11:35 PM,57.2,35.6,44,29.88,10.0,West,8.1,-,N/A,,Mostly Cloudy,260,2013-05-19 05:35:00
11:55 PM,55.4,39.2,54,29.88,10.0,West,4.6,-,N/A,,Scattered Clouds,270,2013-05-19 05:55:00